sensor_id;sensor_type;location;lat;lon;timestamp;temperature;humidity
10437;DHT22;5265;50.006;9.202;2023-05-21T00:00:06;14.40;99.90
10437;DHT22;5265;50.006;9.202;2023-05-21T00:02:37;14.40;99.90
10437;DHT22;5265;50.006;9.202;2023-05-21T00:05:05;14.40;99.90
10437;DHT22;5265;50.006;9.202;2023-05-21T00:07:36;14.20;99.90
10437;DHT22;5265;50.006;9.202;2023-05-21T00:10:03;14.50;99.90
10437;DHT22;5265;50.006;9.202;2023-05-21T00:12:30;14.50;99.90
10437;DHT22;5265;50.006;9.202;2023-05-21T00:14:58;14.40;99.90
10437;DHT22;5265;50.006;9.202;2023-05-21T00:17:26;14.40;99.90
10437;DHT22;5265;50.006;9.202;2023-05-21T00:19:53;14.30;99.90
10437;DHT22;5265;50.006;9.202;2023-05-21T00:22:21;14.40;99.90
10437;DHT22;5265;50.006;9.202;2023-05-21T00:24:50;14.30;99.90
10437;DHT22;5265;50.006;9.202;2023-05-21T00:27:17;14.30;99.90
10437;DHT22;5265;50.006;9.202;2023-05-21T00:29:44;14.30;99.90
10437;DHT22;5265;50.006;9.202;2023-05-21T00:32:11;14.30;99.90
10437;DHT22;5265;50.006;9.202;2023-05-21T00:34:37;14.40;99.90
10437;DHT22;5265;50.006;9.202;2023-05-21T00:37:05;14.40;99.90
10437;DHT22;5265;50.006;9.202;2023-05-21T00:39:34;14.40;99.90
10437;DHT22;5265;50.006;9.202;2023-05-21T00:42:03;14.40;99.90
10437;DHT22;5265;50.006;9.202;2023-05-21T00:44:30;14.40;99.90
10437;DHT22;5265;50.006;9.202;2023-05-21T00:46:59;14.40;99.90
10437;DHT22;5265;50.006;9.202;2023-05-21T00:49:27;14.40;99.90
10437;DHT22;5265;50.006;9.202;2023-05-21T00:51:54;14.40;99.90
10437;DHT22;5265;50.006;9.202;2023-05-21T00:54:21;14.40;99.90
10437;DHT22;5265;50.006;9.202;2023-05-21T00:56:49;14.40;99.90
10437;DHT22;5265;50.006;9.202;2023-05-21T00:59:18;14.40;99.90
10437;DHT22;5265;50.006;9.202;2023-05-21T01:01:45;14.00;99.90
10437;DHT22;5265;50.006;9.202;2023-05-21T01:04:18;14.30;99.90
10437;DHT22;5265;50.006;9.202;2023-05-21T01:06:46;14.40;99.90
10437;DHT22;5265;50.006;9.202;2023-05-21T01:09:13;14.40;99.90
10437;DHT22;5265;50.006;9.202;2023-05-21T01:11:41;14.40;99.90
10437;DHT22;5265;50.006;9.202;2023-05-21T01:14:09;14.40;99.90
10437;DHT22;5265;50.006;9.202;2023-05-21T01:16:38;14.40;99.90
10437;DHT22;5265;50.006;9.202;2023-05-21T01:19:07;14.40;99.90
10437;DHT22;5265;50.006;9.202;2023-05-21T01:21:36;14.40;99.90
10437;DHT22;5265;50.006;9.202;2023-05-21T01:24:08;14.50;99.90
10437;DHT22;5265;50.006;9.202;2023-05-21T01:26:35;14.40;99.90
10437;DHT22;5265;50.006;9.202;2023-05-21T01:29:05;14.40;99.90
10437;DHT22;5265;50.006;9.202;2023-05-21T01:31:41;14.40;99.90
10437;DHT22;5265;50.006;9.202;2023-05-21T01:34:11;14.50;99.90
10437;DHT22;5265;50.006;9.202;2023-05-21T01:36:39;14.50;99.90
10437;DHT22;5265;50.006;9.202;2023-05-21T01:39:12;14.50;99.90
10437;DHT22;5265;50.006;9.202;2023-05-21T01:41:42;14.50;99.90
10437;DHT22;5265;50.006;9.202;2023-05-21T01:44:10;14.40;99.90
10437;DHT22;5265;50.006;9.202;2023-05-21T01:46:38;14.40;99.90
10437;DHT22;5265;50.006;9.202;2023-05-21T01:49:05;14.40;99.90
10437;DHT22;5265;50.006;9.202;2023-05-21T01:51:33;14.40;99.90
10437;DHT22;5265;50.006;9.202;2023-05-21T01:54:01;14.40;99.90
10437;DHT22;5265;50.006;9.202;2023-05-21T01:56:29;14.40;99.90
10437;DHT22;5265;50.006;9.202;2023-05-21T01:58:58;14.30;99.90
10437;DHT22;5265;50.006;9.202;2023-05-21T02:01:26;14.40;99.90
10437;DHT22;5265;50.006;9.202;2023-05-21T02:03:54;14.40;99.90
10437;DHT22;5265;50.006;9.202;2023-05-21T02:06:22;14.40;99.90
10437;DHT22;5265;50.006;9.202;2023-05-21T02:08:49;14.40;99.90
10437;DHT22;5265;50.006;9.202;2023-05-21T02:11:16;14.40;99.90
10437;DHT22;5265;50.006;9.202;2023-05-21T02:13:45;14.50;99.90
10437;DHT22;5265;50.006;9.202;2023-05-21T02:16:12;14.40;99.90
10437;DHT22;5265;50.006;9.202;2023-05-21T02:18:41;14.40;99.90
10437;DHT22;5265;50.006;9.202;2023-05-21T02:21:09;14.40;99.90
10437;DHT22;5265;50.006;9.202;2023-05-21T02:23:36;14.40;99.90
10437;DHT22;5265;50.006;9.202;2023-05-21T02:26:04;14.40;99.90
10437;DHT22;5265;50.006;9.202;2023-05-21T02:28:31;14.50;99.90
10437;DHT22;5265;50.006;9.202;2023-05-21T02:31:00;14.10;99.90
10437;DHT22;5265;50.006;9.202;2023-05-21T02:33:27;14.40;99.90
10437;DHT22;5265;50.006;9.202;2023-05-21T02:35:54;14.40;99.90
10437;DHT22;5265;50.006;9.202;2023-05-21T02:38:21;14.30;99.90
10437;DHT22;5265;50.006;9.202;2023-05-21T02:40:50;14.40;99.90
10437;DHT22;5265;50.006;9.202;2023-05-21T02:43:18;14.30;99.90
10437;DHT22;5265;50.006;9.202;2023-05-21T02:45:45;14.30;99.90
10437;DHT22;5265;50.006;9.202;2023-05-21T02:48:14;14.30;99.90
10437;DHT22;5265;50.006;9.202;2023-05-21T02:50:42;14.30;99.90
10437;DHT22;5265;50.006;9.202;2023-05-21T02:53:10;14.40;99.90
10437;DHT22;5265;50.006;9.202;2023-05-21T02:55:37;14.40;99.90
10437;DHT22;5265;50.006;9.202;2023-05-21T02:58:04;14.40;99.90
10437;DHT22;5265;50.006;9.202;2023-05-21T03:00:31;14.40;99.90
10437;DHT22;5265;50.006;9.202;2023-05-21T03:03:00;14.40;99.90
10437;DHT22;5265;50.006;9.202;2023-05-21T03:05:28;14.40;99.90
10437;DHT22;5265;50.006;9.202;2023-05-21T03:07:56;14.40;99.90
10437;DHT22;5265;50.006;9.202;2023-05-21T03:10:23;14.40;99.90
10437;DHT22;5265;50.006;9.202;2023-05-21T03:12:50;14.40;99.90
10437;DHT22;5265;50.006;9.202;2023-05-21T03:15:19;14.50;99.90
10437;DHT22;5265;50.006;9.202;2023-05-21T03:17:48;14.50;99.90
10437;DHT22;5265;50.006;9.202;2023-05-21T03:20:16;14.50;99.90
10437;DHT22;5265;50.006;9.202;2023-05-21T03:22:45;14.50;99.90
10437;DHT22;5265;50.006;9.202;2023-05-21T03:25:13;14.60;99.90
10437;DHT22;5265;50.006;9.202;2023-05-21T03:27:40;14.50;99.90
10437;DHT22;5265;50.006;9.202;2023-05-21T03:30:23;14.50;99.90
10437;DHT22;5265;50.006;9.202;2023-05-21T03:33:11;14.40;99.90
10437;DHT22;5265;50.006;9.202;2023-05-21T03:35:40;14.40;99.90
10437;DHT22;5265;50.006;9.202;2023-05-21T03:38:09;14.30;99.90
10437;DHT22;5265;50.006;9.202;2023-05-21T03:40:35;14.50;99.90
10437;DHT22;5265;50.006;9.202;2023-05-21T03:43:03;14.40;99.90
10437;DHT22;5265;50.006;9.202;2023-05-21T03:45:30;14.30;99.90
10437;DHT22;5265;50.006;9.202;2023-05-21T03:48:21;14.40;99.90
10437;DHT22;5265;50.006;9.202;2023-05-21T03:50:48;14.40;99.90
10437;DHT22;5265;50.006;9.202;2023-05-21T03:53:16;14.40;99.90
10437;DHT22;5265;50.006;9.202;2023-05-21T03:55:43;14.40;99.90
10437;DHT22;5265;50.006;9.202;2023-05-21T03:58:11;14.30;99.90
10437;DHT22;5265;50.006;9.202;2023-05-21T04:00:39;14.30;99.90
10437;DHT22;5265;50.006;9.202;2023-05-21T04:03:06;14.30;99.90
10437;DHT22;5265;50.006;9.202;2023-05-21T04:05:33;14.20;99.90
10437;DHT22;5265;50.006;9.202;2023-05-21T04:08:01;14.20;99.90
10437;DHT22;5265;50.006;9.202;2023-05-21T04:10:30;14.20;99.90
10437;DHT22;5265;50.006;9.202;2023-05-21T04:12:57;14.20;99.90
10437;DHT22;5265;50.006;9.202;2023-05-21T04:15:25;14.20;99.90
10437;DHT22;5265;50.006;9.202;2023-05-21T04:17:52;14.10;99.90
10437;DHT22;5265;50.006;9.202;2023-05-21T04:20:19;14.10;99.90
10437;DHT22;5265;50.006;9.202;2023-05-21T04:22:47;14.10;99.90
10437;DHT22;5265;50.006;9.202;2023-05-21T04:25:14;14.10;99.90
10437;DHT22;5265;50.006;9.202;2023-05-21T04:27:43;14.10;99.90
10437;DHT22;5265;50.006;9.202;2023-05-21T04:30:12;14.20;99.90
10437;DHT22;5265;50.006;9.202;2023-05-21T04:32:39;14.20;99.90
10437;DHT22;5265;50.006;9.202;2023-05-21T04:35:10;14.20;99.90
10437;DHT22;5265;50.006;9.202;2023-05-21T04:37:39;14.20;99.90
10437;DHT22;5265;50.006;9.202;2023-05-21T04:40:07;14.30;99.90
10437;DHT22;5265;50.006;9.202;2023-05-21T04:42:35;14.30;99.90
10437;DHT22;5265;50.006;9.202;2023-05-21T04:45:06;14.30;99.90
10437;DHT22;5265;50.006;9.202;2023-05-21T04:47:36;14.50;99.90
10437;DHT22;5265;50.006;9.202;2023-05-21T04:50:04;14.50;99.90
10437;DHT22;5265;50.006;9.202;2023-05-21T04:52:31;14.50;99.90
10437;DHT22;5265;50.006;9.202;2023-05-21T04:54:59;14.70;99.90
10437;DHT22;5265;50.006;9.202;2023-05-21T04:57:26;14.80;99.90
10437;DHT22;5265;50.006;9.202;2023-05-21T04:59:54;14.90;99.90
10437;DHT22;5265;50.006;9.202;2023-05-21T05:02:24;14.90;99.90
10437;DHT22;5265;50.006;9.202;2023-05-21T05:04:51;15.00;99.90
10437;DHT22;5265;50.006;9.202;2023-05-21T05:07:19;15.30;99.90
10437;DHT22;5265;50.006;9.202;2023-05-21T05:09:47;15.50;99.90
10437;DHT22;5265;50.006;9.202;2023-05-21T05:12:14;15.70;99.90
10437;DHT22;5265;50.006;9.202;2023-05-21T05:14:42;15.90;99.90
10437;DHT22;5265;50.006;9.202;2023-05-21T05:17:09;16.10;99.90
10437;DHT22;5265;50.006;9.202;2023-05-21T05:19:43;16.30;99.90
10437;DHT22;5265;50.006;9.202;2023-05-21T05:22:10;16.50;99.90
10437;DHT22;5265;50.006;9.202;2023-05-21T05:24:37;16.60;99.90
10437;DHT22;5265;50.006;9.202;2023-05-21T05:27:04;16.90;99.90
10437;DHT22;5265;50.006;9.202;2023-05-21T05:29:31;17.00;99.90
10437;DHT22;5265;50.006;9.202;2023-05-21T05:31:58;17.20;99.90
10437;DHT22;5265;50.006;9.202;2023-05-21T05:34:26;17.30;99.90
10437;DHT22;5265;50.006;9.202;2023-05-21T05:36:54;17.40;99.90
10437;DHT22;5265;50.006;9.202;2023-05-21T05:39:22;17.60;99.90
10437;DHT22;5265;50.006;9.202;2023-05-21T05:41:50;17.60;99.90
10437;DHT22;5265;50.006;9.202;2023-05-21T05:44:17;17.80;99.90
10437;DHT22;5265;50.006;9.202;2023-05-21T05:46:44;17.90;99.90
10437;DHT22;5265;50.006;9.202;2023-05-21T05:49:11;18.10;99.90
10437;DHT22;5265;50.006;9.202;2023-05-21T05:51:39;18.20;99.90
10437;DHT22;5265;50.006;9.202;2023-05-21T05:54:08;18.30;99.90
10437;DHT22;5265;50.006;9.202;2023-05-21T05:56:35;18.30;99.90
10437;DHT22;5265;50.006;9.202;2023-05-21T05:59:03;18.50;99.90
10437;DHT22;5265;50.006;9.202;2023-05-21T06:01:34;18.60;99.90
10437;DHT22;5265;50.006;9.202;2023-05-21T06:04:01;18.80;99.90
10437;DHT22;5265;50.006;9.202;2023-05-21T06:06:31;18.90;99.90
10437;DHT22;5265;50.006;9.202;2023-05-21T06:08:59;19.00;99.90
10437;DHT22;5265;50.006;9.202;2023-05-21T06:11:31;19.10;99.90
10437;DHT22;5265;50.006;9.202;2023-05-21T06:13:58;19.20;99.90
10437;DHT22;5265;50.006;9.202;2023-05-21T06:16:26;19.30;99.90
10437;DHT22;5265;50.006;9.202;2023-05-21T06:18:56;19.40;99.90
10437;DHT22;5265;50.006;9.202;2023-05-21T06:21:23;19.50;99.90
10437;DHT22;5265;50.006;9.202;2023-05-21T06:23:51;19.50;99.90
10437;DHT22;5265;50.006;9.202;2023-05-21T06:26:18;19.50;99.90
10437;DHT22;5265;50.006;9.202;2023-05-21T06:28:49;19.70;99.90
10437;DHT22;5265;50.006;9.202;2023-05-21T06:31:17;19.70;99.90
10437;DHT22;5265;50.006;9.202;2023-05-21T06:33:47;19.70;99.90
10437;DHT22;5265;50.006;9.202;2023-05-21T06:36:15;19.80;99.90
10437;DHT22;5265;50.006;9.202;2023-05-21T06:38:42;19.80;99.90
10437;DHT22;5265;50.006;9.202;2023-05-21T06:41:10;19.90;99.90
10437;DHT22;5265;50.006;9.202;2023-05-21T06:43:47;19.90;99.90
10437;DHT22;5265;50.006;9.202;2023-05-21T06:46:34;20.00;99.90
10437;DHT22;5265;50.006;9.202;2023-05-21T06:49:05;20.10;99.90
10437;DHT22;5265;50.006;9.202;2023-05-21T06:51:33;20.20;99.90
10437;DHT22;5265;50.006;9.202;2023-05-21T06:54:02;20.30;99.90
10437;DHT22;5265;50.006;9.202;2023-05-21T06:56:29;20.30;99.90
10437;DHT22;5265;50.006;9.202;2023-05-21T06:58:57;20.40;99.90
10437;DHT22;5265;50.006;9.202;2023-05-21T07:01:23;20.50;99.90
10437;DHT22;5265;50.006;9.202;2023-05-21T07:03:52;20.60;99.90
10437;DHT22;5265;50.006;9.202;2023-05-21T07:06:20;20.70;99.90
10437;DHT22;5265;50.006;9.202;2023-05-21T07:08:48;20.70;99.90
10437;DHT22;5265;50.006;9.202;2023-05-21T07:11:15;20.80;99.90
10437;DHT22;5265;50.006;9.202;2023-05-21T07:13:42;20.90;99.90
10437;DHT22;5265;50.006;9.202;2023-05-21T07:16:10;21.10;99.90
10437;DHT22;5265;50.006;9.202;2023-05-21T07:18:38;21.10;99.90
10437;DHT22;5265;50.006;9.202;2023-05-21T07:21:07;21.10;99.90
10437;DHT22;5265;50.006;9.202;2023-05-21T07:23:36;21.30;99.90
10437;DHT22;5265;50.006;9.202;2023-05-21T07:26:03;21.40;99.90
10437;DHT22;5265;50.006;9.202;2023-05-21T07:28:30;21.40;99.90
10437;DHT22;5265;50.006;9.202;2023-05-21T07:30:57;21.50;99.90
10437;DHT22;5265;50.006;9.202;2023-05-21T07:33:31;21.70;99.90
10437;DHT22;5265;50.006;9.202;2023-05-21T07:35:58;21.60;99.90
10437;DHT22;5265;50.006;9.202;2023-05-21T07:38:27;21.70;99.90
10437;DHT22;5265;50.006;9.202;2023-05-21T07:40:54;21.70;99.90
10437;DHT22;5265;50.006;9.202;2023-05-21T07:43:22;21.80;99.90
10437;DHT22;5265;50.006;9.202;2023-05-21T07:45:49;21.80;99.90
10437;DHT22;5265;50.006;9.202;2023-05-21T07:48:17;21.80;99.90
10437;DHT22;5265;50.006;9.202;2023-05-21T07:50:52;21.90;99.90
10437;DHT22;5265;50.006;9.202;2023-05-21T07:53:19;21.90;99.90
10437;DHT22;5265;50.006;9.202;2023-05-21T07:55:49;21.90;99.90
10437;DHT22;5265;50.006;9.202;2023-05-21T07:58:21;22.00;99.90
10437;DHT22;5265;50.006;9.202;2023-05-21T08:00:49;22.00;99.90
10437;DHT22;5265;50.006;9.202;2023-05-21T08:03:17;22.20;99.90
10437;DHT22;5265;50.006;9.202;2023-05-21T08:05:44;22.30;99.90
10437;DHT22;5265;50.006;9.202;2023-05-21T08:08:15;22.30;99.90
10437;DHT22;5265;50.006;9.202;2023-05-21T08:10:44;22.40;99.90
10437;DHT22;5265;50.006;9.202;2023-05-21T08:13:15;22.60;99.90
10437;DHT22;5265;50.006;9.202;2023-05-21T08:15:44;22.60;99.90
10437;DHT22;5265;50.006;9.202;2023-05-21T08:18:11;22.80;99.90
10437;DHT22;5265;50.006;9.202;2023-05-21T08:20:41;22.70;99.90
10437;DHT22;5265;50.006;9.202;2023-05-21T08:23:09;22.80;99.90
10437;DHT22;5265;50.006;9.202;2023-05-21T08:25:41;22.70;99.90
10437;DHT22;5265;50.006;9.202;2023-05-21T08:28:09;22.80;99.90
10437;DHT22;5265;50.006;9.202;2023-05-21T08:30:38;22.90;99.90
10437;DHT22;5265;50.006;9.202;2023-05-21T08:33:06;23.10;99.90
10437;DHT22;5265;50.006;9.202;2023-05-21T08:35:33;23.10;99.90
10437;DHT22;5265;50.006;9.202;2023-05-21T08:38:18;23.10;99.90
10437;DHT22;5265;50.006;9.202;2023-05-21T08:41:04;23.20;99.90
10437;DHT22;5265;50.006;9.202;2023-05-21T08:43:33;23.20;99.90
10437;DHT22;5265;50.006;9.202;2023-05-21T08:46:05;23.20;99.90
10437;DHT22;5265;50.006;9.202;2023-05-21T08:48:35;23.30;99.90
10437;DHT22;5265;50.006;9.202;2023-05-21T08:51:03;23.40;99.90
10437;DHT22;5265;50.006;9.202;2023-05-21T08:53:35;23.50;99.90
10437;DHT22;5265;50.006;9.202;2023-05-21T08:56:06;23.50;99.90
10437;DHT22;5265;50.006;9.202;2023-05-21T08:58:41;23.60;99.90
10437;DHT22;5265;50.006;9.202;2023-05-21T09:01:12;23.70;99.90
10437;DHT22;5265;50.006;9.202;2023-05-21T09:03:43;23.80;99.90
10437;DHT22;5265;50.006;9.202;2023-05-21T09:06:12;23.80;99.90
10437;DHT22;5265;50.006;9.202;2023-05-21T09:08:41;23.90;99.90
10437;DHT22;5265;50.006;9.202;2023-05-21T09:11:16;23.90;99.90
10437;DHT22;5265;50.006;9.202;2023-05-21T09:13:50;23.90;99.90
10437;DHT22;5265;50.006;9.202;2023-05-21T09:16:26;23.90;99.90
10437;DHT22;5265;50.006;9.202;2023-05-21T09:18:53;23.80;99.90
10437;DHT22;5265;50.006;9.202;2023-05-21T09:21:25;23.80;99.90
10437;DHT22;5265;50.006;9.202;2023-05-21T09:23:57;23.80;99.90
10437;DHT22;5265;50.006;9.202;2023-05-21T09:26:25;23.90;99.90
10437;DHT22;5265;50.006;9.202;2023-05-21T09:28:56;24.00;99.90
10437;DHT22;5265;50.006;9.202;2023-05-21T09:31:23;24.10;99.90
10437;DHT22;5265;50.006;9.202;2023-05-21T09:33:52;24.30;99.90
10437;DHT22;5265;50.006;9.202;2023-05-21T09:36:21;24.40;99.90
10437;DHT22;5265;50.006;9.202;2023-05-21T09:38:49;24.40;99.90
10437;DHT22;5265;50.006;9.202;2023-05-21T09:41:17;24.50;99.90
10437;DHT22;5265;50.006;9.202;2023-05-21T09:43:45;24.60;99.90
10437;DHT22;5265;50.006;9.202;2023-05-21T09:46:14;24.60;99.90
10437;DHT22;5265;50.006;9.202;2023-05-21T09:48:42;24.60;99.90
10437;DHT22;5265;50.006;9.202;2023-05-21T09:51:15;24.80;99.90
10437;DHT22;5265;50.006;9.202;2023-05-21T09:53:43;24.80;99.90
10437;DHT22;5265;50.006;9.202;2023-05-21T09:56:10;25.00;99.90
10437;DHT22;5265;50.006;9.202;2023-05-21T09:58:37;25.00;99.90
10437;DHT22;5265;50.006;9.202;2023-05-21T10:01:05;25.10;99.90
10437;DHT22;5265;50.006;9.202;2023-05-21T10:03:32;25.10;99.90
10437;DHT22;5265;50.006;9.202;2023-05-21T10:06:00;25.20;99.90
10437;DHT22;5265;50.006;9.202;2023-05-21T10:08:29;25.20;99.90
10437;DHT22;5265;50.006;9.202;2023-05-21T10:10:58;25.30;99.90
10437;DHT22;5265;50.006;9.202;2023-05-21T10:13:25;25.40;99.90
10437;DHT22;5265;50.006;9.202;2023-05-21T10:15:54;25.40;99.90
10437;DHT22;5265;50.006;9.202;2023-05-21T10:18:25;25.60;99.90
10437;DHT22;5265;50.006;9.202;2023-05-21T10:20:52;25.60;99.90
10437;DHT22;5265;50.006;9.202;2023-05-21T10:23:19;25.70;99.90
10437;DHT22;5265;50.006;9.202;2023-05-21T10:25:48;25.80;99.90
10437;DHT22;5265;50.006;9.202;2023-05-21T10:28:16;25.90;99.90
10437;DHT22;5265;50.006;9.202;2023-05-21T10:30:43;26.00;99.90
10437;DHT22;5265;50.006;9.202;2023-05-21T10:33:11;26.00;99.90
10437;DHT22;5265;50.006;9.202;2023-05-21T10:35:39;26.00;99.90
10437;DHT22;5265;50.006;9.202;2023-05-21T10:38:07;26.10;99.90
10437;DHT22;5265;50.006;9.202;2023-05-21T10:40:35;26.10;99.90
10437;DHT22;5265;50.006;9.202;2023-05-21T10:46:09;26.30;99.90
10437;DHT22;5265;50.006;9.202;2023-05-21T10:48:46;26.40;99.90
10437;DHT22;5265;50.006;9.202;2023-05-21T10:51:19;26.50;99.90
10437;DHT22;5265;50.006;9.202;2023-05-21T10:56:40;26.60;99.90
10437;DHT22;5265;50.006;9.202;2023-05-21T10:59:14;26.60;99.90
10437;DHT22;5265;50.006;9.202;2023-05-21T11:01:49;26.70;99.90
10437;DHT22;5265;50.006;9.202;2023-05-21T11:04:20;26.80;99.90
10437;DHT22;5265;50.006;9.202;2023-05-21T11:06:48;26.90;99.90
10437;DHT22;5265;50.006;9.202;2023-05-21T11:09:15;26.80;99.90
10437;DHT22;5265;50.006;9.202;2023-05-21T11:11:42;26.80;99.90
10437;DHT22;5265;50.006;9.202;2023-05-21T11:14:27;26.80;99.90
10437;DHT22;5265;50.006;9.202;2023-05-21T11:16:57;26.90;99.90
10437;DHT22;5265;50.006;9.202;2023-05-21T11:19:34;26.80;99.90
10437;DHT22;5265;50.006;9.202;2023-05-21T11:22:06;25.70;99.90
10437;DHT22;5265;50.006;9.202;2023-05-21T11:24:35;27.00;99.90
10437;DHT22;5265;50.006;9.202;2023-05-21T11:27:03;27.10;99.90
10437;DHT22;5265;50.006;9.202;2023-05-21T11:29:43;27.20;99.90
10437;DHT22;5265;50.006;9.202;2023-05-21T11:32:13;27.30;99.90
10437;DHT22;5265;50.006;9.202;2023-05-21T11:34:42;27.40;99.90
10437;DHT22;5265;50.006;9.202;2023-05-21T11:37:23;27.50;99.90
10437;DHT22;5265;50.006;9.202;2023-05-21T11:39:52;26.20;99.90
10437;DHT22;5265;50.006;9.202;2023-05-21T11:42:26;27.60;99.90
10437;DHT22;5265;50.006;9.202;2023-05-21T11:44:55;27.60;99.90
10437;DHT22;5265;50.006;9.202;2023-05-21T11:47:23;27.60;99.90
10437;DHT22;5265;50.006;9.202;2023-05-21T11:49:51;27.50;99.90
10437;DHT22;5265;50.006;9.202;2023-05-21T11:52:19;27.70;99.90
10437;DHT22;5265;50.006;9.202;2023-05-21T11:54:46;27.80;99.90
10437;DHT22;5265;50.006;9.202;2023-05-21T11:57:15;27.70;99.90
10437;DHT22;5265;50.006;9.202;2023-05-21T11:59:44;27.80;99.90
10437;DHT22;5265;50.006;9.202;2023-05-21T12:02:13;27.80;99.90
10437;DHT22;5265;50.006;9.202;2023-05-21T12:04:42;27.90;99.90
10437;DHT22;5265;50.006;9.202;2023-05-21T12:07:09;28.00;99.90
10437;DHT22;5265;50.006;9.202;2023-05-21T12:09:38;28.30;99.90
10437;DHT22;5265;50.006;9.202;2023-05-21T12:12:05;28.30;99.90
10437;DHT22;5265;50.006;9.202;2023-05-21T12:14:33;28.40;99.90
10437;DHT22;5265;50.006;9.202;2023-05-21T12:17:01;28.60;99.90
10437;DHT22;5265;50.006;9.202;2023-05-21T12:19:30;28.80;99.90
10437;DHT22;5265;50.006;9.202;2023-05-21T12:22:00;28.90;99.90
10437;DHT22;5265;50.006;9.202;2023-05-21T12:24:27;29.20;99.90
10437;DHT22;5265;50.006;9.202;2023-05-21T12:26:55;29.30;99.90
10437;DHT22;5265;50.006;9.202;2023-05-21T12:29:24;29.50;99.90
10437;DHT22;5265;50.006;9.202;2023-05-21T12:31:51;29.40;99.90
10437;DHT22;5265;50.006;9.202;2023-05-21T12:37:15;29.50;99.90
10437;DHT22;5265;50.006;9.202;2023-05-21T12:39:42;29.80;99.90
10437;DHT22;5265;50.006;9.202;2023-05-21T12:42:10;30.10;99.90
10437;DHT22;5265;50.006;9.202;2023-05-21T12:44:38;29.50;99.90
10437;DHT22;5265;50.006;9.202;2023-05-21T12:47:06;29.00;99.90
10437;DHT22;5265;50.006;9.202;2023-05-21T12:49:33;29.00;99.90
10437;DHT22;5265;50.006;9.202;2023-05-21T12:52:04;29.20;99.90
10437;DHT22;5265;50.006;9.202;2023-05-21T12:54:35;29.50;99.90
10437;DHT22;5265;50.006;9.202;2023-05-21T12:57:06;29.90;99.90
10437;DHT22;5265;50.006;9.202;2023-05-21T12:59:43;30.10;99.90
10437;DHT22;5265;50.006;9.202;2023-05-21T13:02:15;30.30;99.90
10437;DHT22;5265;50.006;9.202;2023-05-21T13:04:42;30.70;99.20
10437;DHT22;5265;50.006;9.202;2023-05-21T13:07:09;31.10;98.90
10437;DHT22;5265;50.006;9.202;2023-05-21T13:09:38;31.40;98.00
10437;DHT22;5265;50.006;9.202;2023-05-21T13:12:05;31.30;97.80
10437;DHT22;5265;50.006;9.202;2023-05-21T13:14:32;31.30;96.90
10437;DHT22;5265;50.006;9.202;2023-05-21T13:16:59;31.40;96.20
10437;DHT22;5265;50.006;9.202;2023-05-21T13:19:27;31.40;96.20
10437;DHT22;5265;50.006;9.202;2023-05-21T13:21:54;31.20;96.80
10437;DHT22;5265;50.006;9.202;2023-05-21T13:24:21;31.50;97.00
10437;DHT22;5265;50.006;9.202;2023-05-21T13:26:49;31.60;97.20
10437;DHT22;5265;50.006;9.202;2023-05-21T13:29:16;31.40;97.10
10437;DHT22;5265;50.006;9.202;2023-05-21T13:31:43;31.50;96.40
10437;DHT22;5265;50.006;9.202;2023-05-21T13:34:11;31.20;95.70
10437;DHT22;5265;50.006;9.202;2023-05-21T13:36:38;31.00;96.20
10437;DHT22;5265;50.006;9.202;2023-05-21T13:39:05;31.00;95.70
10437;DHT22;5265;50.006;9.202;2023-05-21T13:41:32;30.70;95.70
10437;DHT22;5265;50.006;9.202;2023-05-21T13:44:01;30.70;95.40
10437;DHT22;5265;50.006;9.202;2023-05-21T13:46:28;30.60;95.60
10437;DHT22;5265;50.006;9.202;2023-05-21T13:48:55;30.60;95.20
10437;DHT22;5265;50.006;9.202;2023-05-21T13:51:22;30.90;94.90
10437;DHT22;5265;50.006;9.202;2023-05-21T13:53:49;30.90;94.60
10437;DHT22;5265;50.006;9.202;2023-05-21T13:56:16;30.80;94.70
10437;DHT22;5265;50.006;9.202;2023-05-21T13:58:45;30.70;94.00
10437;DHT22;5265;50.006;9.202;2023-05-21T14:01:13;30.70;94.80
10437;DHT22;5265;50.006;9.202;2023-05-21T14:03:41;31.20;94.50
10437;DHT22;5265;50.006;9.202;2023-05-21T14:06:08;31.40;93.60
10437;DHT22;5265;50.006;9.202;2023-05-21T14:08:35;31.70;94.80
10437;DHT22;5265;50.006;9.202;2023-05-21T14:11:02;32.00;94.50
10437;DHT22;5265;50.006;9.202;2023-05-21T14:13:30;32.50;93.80
10437;DHT22;5265;50.006;9.202;2023-05-21T14:15:57;33.00;93.20
10437;DHT22;5265;50.006;9.202;2023-05-21T14:18:25;32.90;92.50
10437;DHT22;5265;50.006;9.202;2023-05-21T14:20:52;33.10;92.30
10437;DHT22;5265;50.006;9.202;2023-05-21T14:23:20;33.20;92.30
10437;DHT22;5265;50.006;9.202;2023-05-21T14:25:47;33.40;92.40
10437;DHT22;5265;50.006;9.202;2023-05-21T14:28:14;33.50;92.50
10437;DHT22;5265;50.006;9.202;2023-05-21T14:30:41;33.40;92.00
10437;DHT22;5265;50.006;9.202;2023-05-21T14:33:08;33.60;92.00
10437;DHT22;5265;50.006;9.202;2023-05-21T14:35:37;33.80;91.80
10437;DHT22;5265;50.006;9.202;2023-05-21T14:38:06;33.80;91.20
10437;DHT22;5265;50.006;9.202;2023-05-21T14:40:33;34.00;91.10
10437;DHT22;5265;50.006;9.202;2023-05-21T14:43:00;33.90;90.70
10437;DHT22;5265;50.006;9.202;2023-05-21T14:45:27;33.80;90.30
10437;DHT22;5265;50.006;9.202;2023-05-21T14:47:54;33.70;89.20
10437;DHT22;5265;50.006;9.202;2023-05-21T14:50:22;33.50;89.80
10437;DHT22;5265;50.006;9.202;2023-05-21T14:52:50;33.20;89.70
10437;DHT22;5265;50.006;9.202;2023-05-21T14:55:17;33.30;90.90
10437;DHT22;5265;50.006;9.202;2023-05-21T14:57:47;33.50;90.40
10437;DHT22;5265;50.006;9.202;2023-05-21T15:00:14;33.60;90.20
10437;DHT22;5265;50.006;9.202;2023-05-21T15:02:41;33.50;89.50
10437;DHT22;5265;50.006;9.202;2023-05-21T15:05:08;33.90;89.50
10437;DHT22;5265;50.006;9.202;2023-05-21T15:07:35;33.70;88.80
10437;DHT22;5265;50.006;9.202;2023-05-21T15:10:05;33.80;87.20
10437;DHT22;5265;50.006;9.202;2023-05-21T15:12:32;33.90;87.00
10437;DHT22;5265;50.006;9.202;2023-05-21T15:14:59;34.10;87.10
10437;DHT22;5265;50.006;9.202;2023-05-21T15:17:26;34.30;87.00
10437;DHT22;5265;50.006;9.202;2023-05-21T15:19:53;34.50;86.90
10437;DHT22;5265;50.006;9.202;2023-05-21T15:22:20;34.20;86.90
10437;DHT22;5265;50.006;9.202;2023-05-21T15:24:48;33.60;87.00
10437;DHT22;5265;50.006;9.202;2023-05-21T15:27:16;33.40;86.60
10437;DHT22;5265;50.006;9.202;2023-05-21T15:29:44;33.40;87.00
10437;DHT22;5265;50.006;9.202;2023-05-21T15:32:11;33.20;87.30
10437;DHT22;5265;50.006;9.202;2023-05-21T15:34:38;33.20;88.10
10437;DHT22;5265;50.006;9.202;2023-05-21T15:37:05;33.30;88.70
10437;DHT22;5265;50.006;9.202;2023-05-21T15:39:32;33.10;87.90
10437;DHT22;5265;50.006;9.202;2023-05-21T15:41:59;32.70;86.30
10437;DHT22;5265;50.006;9.202;2023-05-21T15:44:28;32.50;87.60
10437;DHT22;5265;50.006;9.202;2023-05-21T15:46:55;32.40;88.10
10437;DHT22;5265;50.006;9.202;2023-05-21T15:49:22;32.20;86.40
10437;DHT22;5265;50.006;9.202;2023-05-21T15:51:50;32.20;88.70
10437;DHT22;5265;50.006;9.202;2023-05-21T15:54:17;32.20;88.50
10437;DHT22;5265;50.006;9.202;2023-05-21T15:56:44;31.80;87.20
10437;DHT22;5265;50.006;9.202;2023-05-21T15:59:12;31.80;87.70
10437;DHT22;5265;50.006;9.202;2023-05-21T16:01:40;31.70;87.50